Weather History for Coldwater, MI

Change the Weather History Date:

Monday, February 18, 2013

  Actual Average (KJYM) Record (KJYM)
Temperature  
Mean Temperature 36 °F -  
Max Temperature 50 °F 33 °F 56 °F (1961)
Min Temperature 21 °F 18 °F -6 °F (1979)
Degree Days  
Heating Degree Days 30    
Moisture  
Dew Point 24 °F    
Average Humidity 64    
Maximum Humidity 87    
Minimum Humidity 50    
Precipitation  
Precipitation 0.00 in - - ()
Sea Level Pressure  
Sea Level Pressure 29.85 in    
Wind  
Wind Speed 10 mph (SSE)    
Max Wind Speed 20 mph    
Max Gust Speed 29 mph    
Visibility 10 miles    
Events Rain    
Averages and records for this station are not official NWS values.
T = Trace of Precipitation, MM = Missing Value Source: NWS Daily Summary

Daily Weather History Graph

Daily Weather History Graph

Search for Another Location

Airport:

Trip Planner

Search our weather history database for the weather conditions in past years. The results will help you decide how hot, cold, wet, or windy it might be!

Date:

Astronomy

Feb. 18, 2013 Rise Set
Actual Time 7:31 AM EST 6:17 PM EST
Civil Twilight 7:03 AM EST 6:45 PM EST
Nautical Twilight 6:30 AM EST 7:18 PM EST
Astronomical Twilight 5:58 AM EST 7:50 PM EST
Moon 11:59 AM EST (2/18) 2:13 AM EST (2/18)
Length of Visible Light 11h 42m
Length of Day
10h 45m
First Quarter, 58% of the Moon is Illuminated
Feb 18
First Quarter
Feb 25
Full
Mar 4
Last Quarter
Mar 11
New
Mar 19
First Quarter

Hourly Weather History & Observations

Time (EST) Temp. Windchill Dew Point Humidity Pressure Visibility Wind Dir Wind Speed Gust Speed Precip Events Conditions
12:14 AM 21.4 °F 12.8 °F 12.7 °F 69% 30.13 in 10.0 mi SSE 6.9 mph - N/A   Clear
12:34 AM 21.6 °F 13.0 °F 12.9 °F 69% 30.13 in 10.0 mi South 6.9 mph - N/A   Clear
12:55 AM 21.9 °F 14.5 °F 12.9 °F 68% 30.13 in 10.0 mi SSE 5.8 mph - N/A   Clear
1:14 AM 21.7 °F 12.3 °F 13.5 °F 70% 30.12 in 10.0 mi SSE 8.1 mph - N/A   Clear
1:34 AM 22.1 °F 13.7 °F 13.1 °F 68% 30.12 in 10.0 mi SSE 6.9 mph - N/A   Clear
1:54 AM 22.1 °F 13.7 °F 13.1 °F 68% 30.12 in 10.0 mi SSE 6.9 mph - N/A   Clear
2:14 AM 21.7 °F 12.3 °F 13.1 °F 69% 30.12 in 10.0 mi SSE 8.1 mph - N/A   Clear
2:35 AM 21.7 °F 12.3 °F 12.9 °F 69% 30.11 in 10.0 mi SE 8.1 mph - N/A   Clear
2:54 AM 21.9 °F 12.5 °F 12.6 °F 67% 30.11 in 10.0 mi SSE 8.1 mph - N/A   Clear
3:14 AM 21.7 °F 13.2 °F 12.7 °F 68% 30.10 in 10.0 mi SSE 6.9 mph - N/A   Clear
3:35 AM 22.1 °F 11.3 °F 12.2 °F 66% 30.09 in 10.0 mi SSE 10.4 mph - N/A   Clear
3:54 AM 22.8 °F 11.5 °F 12.2 °F 64% 30.08 in 10.0 mi SSE 11.5 mph - N/A   Mostly Cloudy
4:14 AM 23.2 °F 11.4 °F 12.2 °F 63% 30.06 in 10.0 mi SSE 12.7 mph 17.3 mph N/A   Overcast
4:34 AM 23.5 °F 13.0 °F 12.4 °F 62% 30.04 in 10.0 mi SSE 10.4 mph - N/A   Overcast
4:54 AM 23.5 °F 12.4 °F 12.2 °F 62% 30.04 in 10.0 mi SSE 11.5 mph 17.3 mph N/A   Overcast
5:15 AM 23.9 °F 12.3 °F 12.4 °F 62% 30.04 in 10.0 mi SSE 12.7 mph 17.3 mph N/A   Overcast
5:34 AM 23.9 °F 12.3 °F 12.0 °F 61% 30.02 in 10.0 mi SSE 12.7 mph 19.6 mph N/A   Overcast
5:54 AM 23.9 °F 12.3 °F 12.0 °F 61% 30.01 in 10.0 mi SE 12.7 mph 19.6 mph N/A   Mostly Cloudy
6:14 AM 23.7 °F 11.5 °F 12.0 °F 61% 30.00 in 10.0 mi SSE 13.8 mph 18.4 mph N/A   Scattered Clouds
6:34 AM 23.7 °F 12.6 °F 12.0 °F 61% 29.99 in 10.0 mi SSE 11.5 mph - N/A   Clear
6:54 AM 23.5 °F 11.8 °F 12.0 °F 61% 29.98 in 10.0 mi SSE 12.7 mph 20.7 mph N/A   Clear
7:14 AM 23.5 °F 11.8 °F 12.0 °F 61% 29.97 in 10.0 mi SE 12.7 mph 19.6 mph N/A   Clear
7:34 AM 23.9 °F 11.7 °F 12.2 °F 61% 29.96 in 10.0 mi SE 13.8 mph 19.6 mph N/A   Clear
7:55 AM 24.4 °F 13.0 °F 12.2 °F 60% 29.95 in 10.0 mi SE 12.7 mph 23.0 mph N/A   Clear
8:14 AM 24.8 °F 11.9 °F 12.7 °F 60% 29.95 in 10.0 mi SE 16.1 mph 20.7 mph N/A   Clear
8:34 AM 25.7 °F 14.0 °F 13.1 °F 59% 29.94 in 10.0 mi SSE 13.8 mph 20.7 mph N/A   Clear
9:14 AM 29.1 °F 18.9 °F 14.7 °F 55% 29.93 in 10.0 mi South 12.7 mph 18.4 mph N/A   Clear
9:35 AM 29.8 °F 20.9 °F 15.4 °F 55% 29.92 in 10.0 mi South 10.4 mph 23.0 mph N/A   Clear
9:54 AM 30.7 °F 22.0 °F 15.8 °F 54% 29.91 in 10.0 mi SSE 10.4 mph 20.7 mph N/A   Clear
10:14 AM 31.8 °F 23.3 °F 16.7 °F 54% 29.90 in 10.0 mi SSE 10.4 mph 18.4 mph N/A   Clear
10:35 AM 32.5 °F 24.8 °F 18.1 °F 55% 29.89 in 10.0 mi South 9.2 mph 21.9 mph N/A   Clear
10:54 AM 32.9 °F 23.2 °F 18.5 °F 55% 29.89 in 10.0 mi SSE 13.8 mph 23.0 mph N/A   Clear
11:14 AM 34.5 °F 27.3 °F 19.6 °F 54% 29.88 in 10.0 mi South 9.2 mph 20.7 mph N/A   Clear
11:35 AM 36.1 °F 26.9 °F 20.5 °F 53% 29.88 in 10.0 mi South 15.0 mph 21.9 mph N/A   Clear
11:54 AM 37.8 °F 28.6 °F 21.7 °F 53% 29.86 in 10.0 mi SSE 16.1 mph 20.7 mph N/A   Clear
12:14 PM 39.0 °F 31.4 °F 23.0 °F 53% 29.85 in 10.0 mi South 12.7 mph 20.7 mph N/A   Clear
12:35 PM 39.9 °F 32.9 °F 23.5 °F 52% 29.84 in 10.0 mi South 11.5 mph - N/A   Clear
12:54 PM 41.4 °F 34.3 °F 24.8 °F 52% 29.83 in 10.0 mi SSE 12.7 mph 17.3 mph N/A   Clear
1:14 PM 42.3 °F 35.9 °F 25.5 °F 52% 29.82 in 10.0 mi South 11.5 mph - N/A   Clear
1:35 PM 43.9 °F 38.8 °F 26.4 °F 50% 29.80 in 10.0 mi South 9.2 mph 18.4 mph N/A   Clear
1:54 PM 45.3 °F 39.7 °F 27.7 °F 50% 29.79 in 10.0 mi South 11.5 mph - N/A   Clear
2:14 PM 46.2 °F 40.8 °F 28.6 °F 50% 29.78 in 10.0 mi South 11.5 mph 20.7 mph N/A   Clear
2:34 PM 47.3 °F - 30.0 °F 51% 29.76 in 10.0 mi South 9.2 mph 20.7 mph N/A   Clear
2:54 PM 47.1 °F - 30.7 °F 53% 29.75 in 10.0 mi South 10.4 mph 17.3 mph N/A   Clear
3:14 PM 48.6 °F - 31.8 °F 52% 29.74 in 10.0 mi South 11.5 mph 20.7 mph N/A   Clear
3:34 PM 50.0 °F - 33.1 °F 52% 29.73 in 10.0 mi South 8.1 mph 19.6 mph N/A   Clear
3:54 PM 50.0 °F - 33.4 °F 53% 29.73 in 10.0 mi South 11.5 mph 18.4 mph N/A   Scattered Clouds
4:14 PM 50.4 °F - 34.2 °F 54% 29.72 in 10.0 mi South 12.7 mph 19.6 mph N/A   Overcast
4:34 PM 50.0 °F - 34.7 °F 56% 29.71 in 10.0 mi South 11.5 mph 19.6 mph N/A   Overcast
4:54 PM 49.1 °F - 34.7 °F 58% 29.71 in 10.0 mi South 9.2 mph 16.1 mph N/A   Overcast
5:14 PM 48.4 °F - 34.7 °F 59% 29.71 in 10.0 mi South 13.8 mph 19.6 mph N/A   Overcast
5:34 PM 47.3 °F - 36.3 °F 66% 29.70 in 10.0 mi South 12.7 mph 23.0 mph N/A Rain Rain
5:54 PM 45.7 °F 41.5 °F 37.2 °F 72% 29.71 in 10.0 mi South 8.1 mph - N/A Rain Light Rain
6:14 PM 44.6 °F 40.2 °F 38.5 °F 79% 29.70 in 7.0 mi South 8.1 mph 16.1 mph N/A Rain Light Rain
6:34 PM 43.5 °F 37.9 °F 39.2 °F 85% 29.69 in 7.0 mi SSE 10.4 mph - N/A Rain Light Rain
6:55 PM 43.2 °F 37.9 °F 39.4 °F 86% 29.69 in 7.0 mi SSE 9.2 mph - N/A Rain Light Rain
7:14 PM 43.7 °F 38.6 °F 40.1 °F 87% 29.68 in 7.0 mi SSE 9.2 mph 17.3 mph N/A Rain Light Rain
7:34 PM 43.9 °F 38.3 °F 39.7 °F 85% 29.66 in 10.0 mi South 10.4 mph - N/A   Overcast
7:55 PM 45.7 °F 40.2 °F 39.4 °F 79% 29.66 in 10.0 mi South 11.5 mph 17.3 mph N/A   Overcast
8:14 PM 46.4 °F 42.4 °F 39.2 °F 76% 29.65 in 10.0 mi South 8.1 mph 16.1 mph N/A   Overcast
8:34 PM 46.0 °F 41.4 °F 38.5 °F 75% 29.64 in 10.0 mi South 9.2 mph - N/A   Overcast
8:55 PM 46.0 °F 41.9 °F 37.9 °F 73% 29.62 in 10.0 mi South 8.1 mph 16.1 mph N/A   Overcast
9:14 PM 45.5 °F 39.9 °F 37.6 °F 74% 29.61 in 10.0 mi South 11.5 mph 17.3 mph N/A   Overcast
9:34 PM 45.9 °F 40.8 °F 37.0 °F 71% 29.60 in 10.0 mi South 10.4 mph 20.7 mph N/A   Overcast
9:55 PM 46.0 °F 40.6 °F 36.7 °F 70% 29.60 in 10.0 mi South 11.5 mph 18.4 mph N/A Rain Light Rain
10:14 PM 44.8 °F 38.3 °F 37.8 °F 76% 29.59 in 7.0 mi South 13.8 mph 17.3 mph N/A Rain Light Rain
10:34 PM 45.0 °F 37.4 °F 38.1 °F 77% 29.58 in 7.0 mi South 18.4 mph 28.8 mph N/A Rain Light Rain
11:14 PM 44.6 °F 36.9 °F 38.5 °F 79% 29.54 in 10.0 mi South 18.4 mph 28.8 mph N/A Rain Rain
11:34 PM 43.9 °F 36.8 °F 39.2 °F 84% 29.53 in 5.0 mi South 15.0 mph 23.0 mph N/A   Overcast
11:54 PM 43.3 °F 35.0 °F 39.2 °F 85% 29.51 in 10.0 mi South 19.6 mph 28.8 mph N/A Rain Light Rain